Latest Coastal Weather Observations for Low Head

IDV60701

Issued at 12:32 pm EST Thursday 28 May 2020 (issued every 10 minutes, with the page automatically refreshed every 10 minutes)

About coastal observations | Map of coastal stations | Coastal observations for VIC | Marine services | Other Formats
Station Details ID: 091293 Name: LOW HEAD Lat: -41.05 Lon: 146.79 Height: 3.0 m
Data from the previous 72 hours. | See also: Recent months at Low Head
Date/Time
EST
Wind Sea
Height
m
Swell Vis
km
Cloud Weather Temp
°C
Press
hPa
Rain since
9am
mm
Dir  Spd
kts
Gust
kts
Height
m
Period
s
Dir
28/12:30pm WNW 17 20 - - - - - - - 14.5 1017.7 0.0
28/12:00pm WNW 15 18 - - - - - - - 14.3 1017.9 0.0
28/11:30am WNW 15 17 - - - - - - - 14.6 1018.2 0.0
28/11:00am WNW 16 18 - - - - - - - 14.1 1018.3 0.0
28/10:30am WNW 15 18 - - - - - - - 14.1 1018.3 0.0
28/10:00am W 16 19 - - - - - - - 13.4 1018.2 0.0
28/09:30am WNW 12 15 - - - - - - - 13.3 1018.2 0.0
28/09:00am WNW 17 21 - - - - - - - 13.4 1018.1 0.4
28/08:30am WNW 16 20 - - - - - - - 13.2 1017.8 0.4
28/08:00am WNW 12 16 - - - - - - - 13.3 1017.5 0.4
28/07:30am W 15 18 - - - - - - - 13.5 1017.3 0.4
28/07:00am WNW 15 18 - - - - - - - 13.7 1017.0 0.4
28/06:30am NW 16 18 - - - - - - - 13.9 1016.7 0.4
28/06:00am NW 14 16 - - - - - - - 14.0 1016.6 0.4
28/05:30am NW 14 18 - - - - - - - 14.0 1016.6 0.4
28/05:00am WNW 7 9 - - - - - - - 13.6 1016.6 0.4
28/04:30am WNW 12 15 - - - - - - - 13.7 1016.6 0.4
28/04:00am NW 12 15 - - - - - - - 14.0 1016.5 0.4
28/03:30am NW 11 14 - - - - - - - 14.1 1016.4 0.4
28/03:00am NNW 12 14 - - - - - - - 14.3 1016.6 0.4
28/02:30am NNW 11 12 - - - - - - - 14.3 1016.8 0.4
28/02:00am N 11 12 - - - - - - - 14.3 1016.9 0.4
28/01:30am NNW 11 13 - - - - - - - 14.2 1016.9 0.4
28/01:00am NNW 10 12 - - - - - - - 14.1 1017.1 0.4
28/12:30am N 8 9 - - - - - - - 14.1 1017.3 0.4
28/12:00am N 9 11 - - - - - - - 14.1 1017.4 0.4
 
Date/Time
EST
Wind Sea
Height
m
Swell Vis
km
Cloud Weather Temp
°C
Press
hPa
Rain since
9am
mm
Dir  Spd
kts
Gust
kts
Height
m
Period
s
Dir
27/11:30pm N 9 11 - - - - - - - 14.0 1017.6 0.4
27/11:00pm N 11 12 - - - - - - - 14.2 1017.5 0.4
27/10:30pm N 9 11 - - - - - - - 14.2 1017.7 0.4
27/10:00pm N 9 11 - - - - - - - 14.3 1017.9 0.4
27/09:30pm N 11 12 - - - - - - - 14.2 1017.9 0.4
27/09:00pm N 10 13 - - - - - - - 14.3 1017.9 0.4
27/08:30pm N 10 11 - - - - - - - 14.3 1018.0 0.4
27/08:00pm NNE 11 13 - - - - - - - 14.3 1018.0 0.4
27/07:30pm NNE 11 13 - - - - - - - 14.3 1018.0 0.4
27/07:00pm NNE 11 12 - - - - - - - 14.3 1017.9 0.4
27/06:30pm N 9 10 - - - - - - - 14.5 1018.0 0.4
27/06:00pm NNE 7 8 - - - - - - - 14.4 1018.1 0.4
27/05:30pm N 11 14 - - - - - - - 14.2 1017.9 0.4
27/05:00pm N 11 14 - - - - - - - 14.5 1017.8 0.4
27/04:30pm NNE 11 13 - - - - - - - 14.4 1017.6 0.4
27/04:00pm NNE 13 15 - - - - - - - 14.4 1017.8 0.0
27/03:30pm NNE 13 15 - - - - - - - 14.4 1017.7 0.0
27/03:00pm NNE 12 14 - - - - - - - 14.4 1017.7 0.0
27/02:30pm NE 13 14 - - - - - - - 14.5 1017.9 0.0
27/02:00pm NE 13 15 - - - - - - - 14.5 1018.3 0.0
27/01:30pm ENE 13 15 - - - - - - - 14.5 1018.5 0.0
27/01:00pm ENE 15 17 - - - - - - - 14.5 1018.8 0.0
27/12:30pm ENE 15 17 - - - - - - - 14.4 1019.2 0.0
27/12:00pm ENE 16 18 - - - - - - - 14.5 1019.5 0.0
27/11:30am ENE 17 19 - - - - - - - 14.4 1020.0 0.0
27/11:00am ENE 17 19 - - - - - - - 14.3 1020.4 0.0
27/10:30am ENE 17 19 - - - - - - - 14.1 1020.7 0.0
27/10:00am ENE 16 19 - - - - - - - 13.8 1020.9 0.0
27/09:30am ENE 15 17 - - - - - - - 13.3 1021.2 0.0
27/09:00am ENE 13 16 - - - - - - Recent precip. 12.9 1021.3 0.4
27/08:30am E 12 13 - - - - - - - 12.4 1021.6 0.4
27/08:00am ESE 5 7 - - - - - - - 11.4 1021.7 0.0
27/07:30am SE 6 9 - - - - - - - 11.3 1021.8 0.0
27/07:00am SSE 5 7 - - - - - - - 10.6 1021.8 0.0
27/06:30am SSE 5 7 - - - - - - - 10.7 1021.7 0.0
27/06:00am SSE 5 6 - - - - - - - 10.8 1021.7 0.0
27/05:30am SE 5 8 - - - - - - - 10.1 1021.6 0.0
27/05:00am SSE 7 7 - - - - - - - 9.8 1021.7 0.0
27/04:30am SSE 7 9 - - - - - - - 9.5 1021.5 0.0
27/04:00am SE 6 7 - - - - - - - 9.3 1021.8 0.0
27/03:30am SSE 7 8 - - - - - - - 9.6 1021.9 0.0
27/03:00am SSE 7 9 - - - - - - - 9.6 1022.3 0.0
27/02:30am SSE 8 10 - - - - - - - 10.0 1022.8 0.0
27/02:00am SSE 9 12 - - - - - - - 9.8 1023.0 0.0
27/01:30am SSE 8 9 - - - - - - - 9.7 1023.0 0.0
27/01:00am SSE 7 8 - - - - - - - 9.5 1023.3 0.0
27/12:30am SSE 7 8 - - - - - - - 9.5 1023.8 0.0
27/12:00am SE 6 8 - - - - - - - 9.3 1024.0 0.0
 
Date/Time
EST
Wind Sea
Height
m
Swell Vis
km
Cloud Weather Temp
°C
Press
hPa
Rain since
9am
mm
Dir  Spd
kts
Gust
kts
Height
m
Period
s
Dir
26/11:30pm ESE 6 9 - - - - - - - 9.9 1024.3 0.0
26/11:00pm SSE 7 8 - - - - - - - 9.1 1024.3 0.0
26/10:30pm SSE 9 11 - - - - - - - 9.4 1024.8 0.0
26/10:00pm SSE 8 9 - - - - - - - 9.7 1025.3 0.0
26/09:30pm SE 6 9 - - - - - - - 10.0 1025.4 0.0
26/09:00pm SE 8 10 - - - - - - - 10.2 1025.6 0.0
26/08:30pm S 7 9 - - - - - - - 10.5 1025.7 0.0
26/08:00pm SSE 10 12 - - - - - - - 10.6 1025.5 0.0
26/07:30pm S 10 12 - - - - - - - 10.8 1025.5 0.0
26/07:00pm SSE 9 11 - - - - - - - 10.3 1025.3 0.0
26/06:30pm SSE 8 11 - - - - - - - 10.2 1025.1 0.0
26/06:00pm SSE 7 9 - - - - - - - 10.1 1024.9 0.0
26/05:30pm SSE 9 10 - - - - - - - 10.1 1024.9 0.0
26/05:00pm SSE 9 11 - - - - - - - 10.1 1025.1 0.0
26/04:30pm SSE 10 13 - - - - - - - 10.3 1025.2 0.0
26/04:00pm S 10 12 - - - - - - - 10.7 1025.4 0.0
26/03:30pm SSE 10 14 - - - - - - - 10.8 1025.1 0.0
26/03:00pm ESE 5 8 - - - - - - - 11.1 1025.4 0.0
26/02:30pm SE 7 9 - - - - - - - 11.2 1025.5 0.0
26/02:00pm SE 7 12 - - - - - - - 10.9 1025.8 0.0
26/01:30pm SSE 9 13 - - - - - - - 11.0 1026.0 0.0
26/01:00pm SSE 11 14 - - - - - - - 10.7 1026.3 0.0
26/12:30pm SSE 12 15 - - - - - - - 10.3 1026.9 0.0
26/12:00pm SSE 13 15 - - - - - - - 10.0 1027.4 0.0
26/11:30am SSE 13 15 - - - - - - - 9.6 1028.1 0.0
26/11:00am SSE 12 14 - - - - - - - 9.5 1028.5 0.0
26/10:30am SSE 12 14 - - - - - - - 8.9 1028.9 0.0
26/10:00am SSE 12 15 - - - - - - - 8.5 1029.1 0.0
26/09:30am SSE 13 15 - - - - - - - 8.5 1029.1 0.0
26/09:00am SSE 11 14 - - - - - - - 8.3 1028.8 0.2
26/08:30am SSE 11 14 - - - - - - - 7.8 1028.7 0.2
26/08:00am SSE 11 13 - - - - - - - 7.9 1028.8 0.2
26/07:30am SSE 10 13 - - - - - - - 7.4 1028.6 0.2
26/07:00am SSE 10 13 - - - - - - - 7.5 1028.7 0.2
26/06:30am SSE 10 13 - - - - - - - 7.3 1028.7 0.2
26/06:00am SSE 9 12 - - - - - - - 7.2 1028.7 0.2
26/05:30am SSE 10 13 - - - - - - - 7.2 1028.6 0.2
26/05:00am SSE 11 13 - - - - - - - 7.2 1028.6 0.2
26/04:30am SSE 11 13 - - - - - - - 7.4 1028.4 0.2
26/04:00am SSE 10 12 - - - - - - - 7.2 1028.4 0.2
26/03:30am SSE 11 14 - - - - - - - 7.4 1028.6 0.2
26/03:00am SSE 11 13 - - - - - - - 7.4 1028.6 0.2
26/02:30am SSE 12 14 - - - - - - - 7.2 1028.5 0.2
26/02:00am SSE 12 15 - - - - - - - 7.2 1028.6 0.2
26/01:30am SSE 10 13 - - - - - - - 6.9 1028.5 0.2
26/01:00am SSE 9 12 - - - - - - - 6.8 1028.8 0.2
26/12:30am SSE 10 12 - - - - - - - 6.7 1029.0 0.2
26/12:00am SSE 10 13 - - - - - - - 6.9 1029.1 0.2
 
Date/Time
EST
Wind Sea
Height
m
Swell Vis
km
Cloud Weather Temp
°C
Press
hPa
Rain since
9am
mm
Dir  Spd
kts
Gust
kts
Height
m
Period
s
Dir
25/11:30pm SSE 11 13 - - - - - - - 6.8 1028.9 0.2
25/11:00pm SSE 10 11 - - - - - - - 6.6 1028.8 0.2
25/10:30pm SSE 9 11 - - - - - - - 6.9 1029.1 0.2
25/10:00pm SSE 8 9 - - - - - - - 7.1 1029.1 0.2
25/09:30pm SSE 8 11 - - - - - - - 7.7 1029.0 0.2
25/09:00pm SSE 9 11 - - - - - - - 7.7 1029.1 0.2
25/08:30pm SSE 9 10 - - - - - - - 7.9 1029.0 0.2
25/08:00pm S 10 11 - - - - - - - 8.4 1028.8 0.2
25/07:30pm SSE 7 9 - - - - - - - 8.2 1028.4 0.2
25/07:00pm SSE 8 9 - - - - - - - 8.4 1028.2 0.2
25/06:30pm S 6 7 - - - - - - - 9.2 1027.9 0.2
25/06:00pm SSW 5 6 - - - - - - - 10.5 1027.5 0.2
25/05:30pm SW 5 6 - - - - - - - 10.7 1027.5 0.2
25/05:00pm WSW 6 8 - - - - - - - 10.7 1027.5 0.2
25/04:30pm W 5 8 - - - - - - - 11.1 1027.3 0.2
25/04:00pm NW 3 6 - - - - - - - 12.2 1027.1 0.2
25/03:30pm N 5 6 - - - - - - - 12.5 1027.1 0.2
25/03:00pm NNW 4 6 - - - - - - Rain 12.5 1027.1 0.2
25/02:30pm N 6 8 - - - - - - - 12.4 1026.8 0.0
25/02:00pm NE 8 10 - - - - - - - 12.2 1026.3 0.0
25/01:30pm ESE 6 10 - - - - - - - 12.4 1026.5 0.0
25/01:00pm SSE 9 11 - - - - - - - 11.1 1026.7 0.0

Other formats

Comma delimited format used in spreadsheet applications
http://www.bom.gov.au/fwo/IDV60701/IDV60701.95964.axf

JavaScript Object Notation format (JSON) in row-major order
http://www.bom.gov.au/fwo/IDV60701/IDV60701.95964.json

Data quality

Most of these data are generated automatically and are frequently updated. Quality checks on data are not normally performed. It is possible for incorrect values to appear. Refer to information at About Latest Weather Observations and please check the disclaimer before using these data.